createdAt,value
2017-12-25T00:01:21.328Z,101676.38
2017-12-25T00:03:53.236Z,101674.22
2017-12-25T00:06:26.093Z,101673.38
2017-12-25T00:08:56.351Z,101664.86
2017-12-25T00:11:25.053Z,101674.72
2017-12-25T00:13:55.047Z,101670.36
2017-12-25T00:16:25.701Z,101673.02
2017-12-25T00:18:54.029Z,101673.44
2017-12-25T00:21:21.631Z,101670.37
2017-12-25T00:23:54.787Z,101675.88
2017-12-25T00:26:26.762Z,101671.80
2017-12-25T00:28:55.499Z,101661.92
2017-12-25T00:31:24.694Z,101662.08
2017-12-25T00:33:53.256Z,101667.02
2017-12-25T00:36:22.352Z,101657.34
2017-12-25T00:38:52.847Z,101646.75
2017-12-25T00:41:22.313Z,101654.58
2017-12-25T00:43:52.134Z,101648.00
2017-12-25T00:46:23.899Z,101647.70
2017-12-25T00:48:55.809Z,101647.94
2017-12-25T00:51:25.047Z,101649.80
2017-12-25T00:53:54.075Z,101648.55
2017-12-25T00:56:22.359Z,101650.30
2017-12-25T00:58:52.125Z,101648.09
2017-12-25T01:01:20.501Z,101647.06
2017-12-25T01:03:48.643Z,101641.65
2017-12-25T01:06:17.809Z,101636.81
2017-12-25T01:08:45.428Z,101636.48
2017-12-25T01:11:16.017Z,101639.72
2017-12-25T01:13:44.850Z,101632.91
2017-12-25T01:16:13.650Z,101630.73
2017-12-25T01:18:44.678Z,101640.20
2017-12-25T01:21:13.366Z,101625.02
2017-12-25T01:23:42.064Z,101627.75
2017-12-25T01:26:10.390Z,101627.30
2017-12-25T01:28:42.490Z,101625.80
2017-12-25T01:31:15.606Z,101634.78
2017-12-25T01:33:46.612Z,101618.83
2017-12-25T01:36:14.467Z,101620.85
2017-12-25T01:38:44.076Z,101623.39
2017-12-25T01:41:13.436Z,101617.41
2017-12-25T01:43:42.062Z,101615.36
2017-12-25T01:46:11.350Z,101621.36
2017-12-25T01:48:41.092Z,101633.02
2017-12-25T01:51:09.349Z,101619.77
2017-12-25T01:53:49.742Z,101619.66
2017-12-25T01:59:59.421Z,101615.34
2017-12-25T02:02:27.714Z,101610.11
2017-12-25T02:10:55.847Z,101617.41
2017-12-25T02:13:26.178Z,101608.94
2017-12-25T02:16:00.337Z,101605.05
2017-12-25T02:18:29.131Z,101609.63
2017-12-25T02:20:59.235Z,101600.92
2017-12-25T02:23:27.405Z,101600.37
2017-12-25T02:25:55.829Z,101591.72
2017-12-25T02:28:24.584Z,101588.46
2017-12-25T02:30:54.681Z,101589.56
2017-12-25T02:33:22.335Z,101585.23
2017-12-25T02:35:54.067Z,101580.47
2017-12-25T02:38:22.862Z,101573.03
2017-12-25T02:40:51.613Z,101566.75
2017-12-25T02:43:19.919Z,101566.30
2017-12-25T02:45:48.958Z,101574.50
2017-12-25T02:48:20.831Z,101572.94
2017-12-25T02:50:48.830Z,101567.83
2017-12-25T02:53:19.143Z,101572.34
2017-12-25T02:55:48.274Z,101565.95
2017-12-25T02:58:17.386Z,101568.46
2017-12-25T03:00:48.198Z,101560.56
2017-12-25T03:03:17.659Z,101564.98
2017-12-25T03:05:46.373Z,101558.99
2017-12-25T03:08:20.466Z,101561.53
2017-12-25T03:10:51.344Z,101550.22
2017-12-25T03:13:20.387Z,101560.38
2017-12-25T03:15:49.225Z,101555.75
2017-12-25T03:18:17.522Z,101552.96
2017-12-25T03:20:50.482Z,101555.28
2017-12-25T03:23:18.099Z,101546.61
2017-12-25T03:25:45.697Z,101553.77
2017-12-25T03:28:17.137Z,101549.64
2017-12-25T03:30:46.556Z,101546.05
2017-12-25T03:33:14.786Z,101540.77
2017-12-25T03:35:44.219Z,101531.69
2017-12-25T03:38:11.817Z,101527.97
2017-12-25T03:40:39.577Z,101527.17
2017-12-25T03:43:07.430Z,101529.25
2017-12-25T03:45:35.726Z,101521.58
2017-12-25T03:48:03.719Z,101512.34
2017-12-25T03:50:32.926Z,101519.33
2017-12-25T03:53:01.333Z,101511.13
2017-12-25T03:55:28.981Z,101509.91
2017-12-25T03:57:59.370Z,101509.16
2017-12-25T04:00:29.633Z,101511.12
2017-12-25T04:02:58.249Z,101506.42
2017-12-25T04:05:27.525Z,101506.53
2017-12-25T04:07:58.490Z,101504.43
2017-12-25T04:10:26.090Z,101501.64
2017-12-25T04:12:54.454Z,101497.19
2017-12-25T04:15:22.074Z,101494.03
2017-12-25T04:17:51.163Z,101485.97
2017-12-25T04:20:20.129Z,101479.59
2017-12-25T04:22:48.823Z,101478.06
2017-12-25T04:25:21.482Z,101477.66
2017-12-25T04:27:51.002Z,101474.86
2017-12-25T04:30:19.495Z,101467.63
2017-12-25T04:32:48.126Z,101466.36
2017-12-25T04:35:16.012Z,101463.62
2017-12-25T04:37:44.388Z,101461.06
2017-12-25T04:40:12.684Z,101458.78
2017-12-25T04:42:42.039Z,101458.78
2017-12-25T04:45:10.866Z,101453.23
2017-12-25T04:47:39.291Z,101453.98
2017-12-25T04:50:09.254Z,101455.94
2017-12-25T04:52:39.362Z,101451.19
2017-12-25T04:55:07.940Z,101449.56
2017-12-25T04:57:36.328Z,101450.36
2017-12-25T05:00:05.804Z,101447.87
2017-12-25T05:02:34.482Z,101441.61
2017-12-25T05:05:06.471Z,101446.23
2017-12-25T05:07:35.787Z,101448.28
2017-12-25T05:10:09.458Z,101439.50
2017-12-25T05:12:38.946Z,101440.51
2017-12-25T05:15:08.527Z,101441.25
2017-12-25T05:17:37.216Z,101439.38
2017-12-25T05:20:06.422Z,101444.28
2017-12-25T05:22:34.885Z,101433.70
2017-12-25T05:25:05.686Z,101435.97
2017-12-25T05:27:35.683Z,101433.80
2017-12-25T05:30:04.888Z,101434.33
2017-12-25T05:32:36.361Z,101430.95
2017-12-25T05:35:04.959Z,101428.62
2017-12-25T05:37:32.550Z,101421.89
2017-12-25T05:40:00.170Z,101419.75
2017-12-25T05:42:29.539Z,101419.52
2017-12-25T05:45:00.837Z,101421.53
2017-12-25T05:47:31.099Z,101414.58
2017-12-25T05:50:02.158Z,101417.13
2017-12-25T05:52:34.773Z,101411.26
2017-12-25T05:55:05.184Z,101412.33
2017-12-25T05:57:34.859Z,101415.69
2017-12-25T06:00:02.504Z,101405.85
2017-12-25T06:02:35.813Z,101409.18
2017-12-25T06:05:08.096Z,101409.18
2017-12-25T06:07:36.895Z,101409.12
2017-12-25T06:10:04.515Z,101407.84
2017-12-25T06:12:33.046Z,101408.02
2017-12-25T06:15:03.200Z,101407.42
2017-12-25T06:17:32.089Z,101405.80
2017-12-25T06:20:00.953Z,101403.06
2017-12-25T06:22:31.438Z,101402.08
2017-12-25T06:25:00.785Z,101396.05
2017-12-25T06:27:32.288Z,101397.72
2017-12-25T06:30:00.725Z,101399.53
2017-12-25T06:32:32.436Z,101396.56
2017-12-25T06:35:07.311Z,101394.42
2017-12-25T06:37:37.219Z,101395.76
2017-12-25T06:40:04.845Z,101401.11
2017-12-25T06:42:33.437Z,101399.47
2017-12-25T06:45:03.767Z,101396.17
2017-12-25T06:47:32.038Z,101394.72
2017-12-25T06:50:01.939Z,101390.77
2017-12-25T06:52:35.762Z,101386.41
2017-12-25T06:55:03.694Z,101385.87
2017-12-25T06:57:31.266Z,101384.27
2017-12-25T06:59:58.946Z,101383.80
2017-12-25T07:02:30.892Z,101385.99
2017-12-25T07:05:01.123Z,101379.91
2017-12-25T07:07:32.348Z,101379.48
2017-12-25T07:10:01.014Z,101377.53
2017-12-25T07:12:30.909Z,101374.98
2017-12-25T07:14:58.885Z,101366.91
2017-12-25T07:17:27.412Z,101367.83
2017-12-25T07:19:56.781Z,101368.36
2017-12-25T07:25:05.954Z,101353.67
2017-12-25T07:27:36.871Z,101360.41
2017-12-25T07:30:05.982Z,101359.02
2017-12-25T07:32:35.779Z,101359.19
2017-12-25T07:35:08.086Z,101354.23
2017-12-25T07:37:39.324Z,101357.08
2017-12-25T07:43:04.104Z,101351.56
2017-12-25T07:45:33.722Z,101346.92
2017-12-25T07:48:02.554Z,101344.38
2017-12-25T07:50:32.499Z,101346.03
2017-12-25T07:53:00.556Z,101342.31
2017-12-25T07:55:29.094Z,101335.10
2017-12-25T07:57:58.842Z,101328.48
2017-12-25T08:00:28.285Z,101333.33
2017-12-25T08:03:01.778Z,101330.23
2017-12-25T08:05:29.748Z,101333.77
2017-12-25T08:07:58.227Z,101336.92
2017-12-25T08:10:27.615Z,101333.33
2017-12-25T08:12:55.989Z,101328.91
2017-12-25T08:15:25.168Z,101334.78
2017-12-25T08:17:54.976Z,101335.08
2017-12-25T08:20:26.286Z,101330.23
2017-12-25T08:22:53.947Z,101331.98
2017-12-25T08:25:22.939Z,101334.43
2017-12-25T08:27:51.546Z,101338.14
2017-12-25T08:30:20.382Z,101330.89
2017-12-25T08:32:48.883Z,101326.12
2017-12-25T08:35:17.834Z,101324.33
2017-12-25T08:37:46.384Z,101325.43
2017-12-25T08:40:16.935Z,101317.59
2017-12-25T08:42:45.809Z,101314.80
2017-12-25T08:45:16.071Z,101314.33
2017-12-25T08:47:44.503Z,101312.94
2017-12-25T08:50:13.178Z,101313.52
2017-12-25T08:52:42.566Z,101316.70
2017-12-25T08:55:11.587Z,101316.13
2017-12-25T08:57:43.133Z,101317.71
2017-12-25T09:00:10.707Z,101318.45
2017-12-25T09:02:40.411Z,101311.12
2017-12-25T09:05:10.516Z,101316.52
2017-12-25T09:07:39.236Z,101329.02
2017-12-25T09:10:09.121Z,101326.34
2017-12-25T09:12:37.702Z,101328.66
2017-12-25T09:15:06.077Z,101326.17
2017-12-25T09:17:34.777Z,101328.28
2017-12-25T09:20:03.077Z,101328.21
2017-12-25T09:22:31.696Z,101330.82
2017-12-25T09:25:01.206Z,101327.91
2017-12-25T09:27:29.769Z,101330.28
2017-12-25T09:29:58.421Z,101325.50
2017-12-25T09:32:26.634Z,101326.84
2017-12-25T09:34:57.721Z,101323.54
2017-12-25T09:37:25.325Z,101322.08
2017-12-25T09:39:54.885Z,101324.63
2017-12-25T09:42:26.916Z,101331.42
2017-12-25T09:44:56.467Z,101329.25
2017-12-25T09:47:24.508Z,101326.14
2017-12-25T09:49:53.943Z,101317.71
2017-12-25T09:52:22.409Z,101316.02
2017-12-25T09:54:52.441Z,101307.08
2017-12-25T09:57:23.773Z,101313.83
2017-12-25T09:59:52.246Z,101302.28
2017-12-25T10:02:25.250Z,101312.14
2017-12-25T10:04:57.684Z,101298.63
2017-12-25T10:07:27.205Z,101289.66
2017-12-25T10:09:55.355Z,101286.19
2017-12-25T10:12:30.846Z,101280.62
2017-12-25T10:15:00.372Z,101282.55
2017-12-25T10:17:30.447Z,101270.91
2017-12-25T10:20:02.986Z,101265.91
2017-12-25T10:22:33.398Z,101268.41
2017-12-25T10:25:02.552Z,101260.87
2017-12-25T10:27:33.638Z,101252.86
2017-12-25T10:30:04.542Z,101250.72
2017-12-25T10:32:34.838Z,101252.78
2017-12-25T10:35:03.260Z,101240.23
2017-12-25T10:37:31.146Z,101236.75
2017-12-25T10:39:58.787Z,101230.99
2017-12-25T10:42:27.623Z,101225.64
2017-12-25T10:44:56.060Z,101226.55
2017-12-25T10:47:27.227Z,101220.25
2017-12-25T10:49:55.848Z,101217.88
2017-12-25T10:52:26.375Z,101209.30
2017-12-25T10:54:56.911Z,101214.66
2017-12-25T10:57:24.510Z,101200.94
2017-12-25T10:59:54.570Z,101207.27
2017-12-25T11:02:28.012Z,101202.64
2017-12-25T11:04:56.890Z,101196.13
2017-12-25T11:07:25.514Z,101192.87
2017-12-25T11:09:55.576Z,101190.30
2017-12-25T11:12:23.991Z,101176.30
2017-12-25T11:14:53.557Z,101174.64
2017-12-25T11:17:22.943Z,101170.67
2017-12-25T11:19:51.171Z,101161.70
2017-12-25T11:22:28.041Z,101152.58
2017-12-25T11:24:56.479Z,101146.06
2017-12-25T11:27:25.151Z,101148.63
2017-12-25T11:29:54.976Z,101141.09
2017-12-25T11:32:32.450Z,101129.47
2017-12-25T11:35:00.740Z,101135.79
2017-12-25T11:37:29.275Z,101128.64
2017-12-25T11:39:56.869Z,101124.79
2017-12-25T11:42:26.375Z,101122.16
2017-12-25T11:44:53.963Z,101118.45
2017-12-25T11:47:21.635Z,101110.83
2017-12-25T11:49:49.243Z,101108.03
2017-12-25T11:52:17.162Z,101100.66
2017-12-25T11:54:46.194Z,101095.36
2017-12-25T11:57:17.495Z,101091.34
2017-12-25T11:59:47.946Z,101088.97
2017-12-25T12:02:16.573Z,101079.57
2017-12-25T12:04:46.509Z,101071.02
2017-12-25T12:07:15.275Z,101073.69
2017-12-25T12:09:42.869Z,101073.98
2017-12-25T12:12:11.695Z,101062.86
2017-12-25T12:14:39.319Z,101061.19
2017-12-25T12:17:10.118Z,101053.09
2017-12-25T12:19:39.010Z,101054.05
2017-12-25T12:22:07.788Z,101048.11
2017-12-25T12:24:36.221Z,101045.35
2017-12-25T12:27:05.555Z,101038.22
2017-12-25T12:32:17.596Z,101039.05
2017-12-25T12:34:46.591Z,101025.48
2017-12-25T12:37:14.179Z,101020.95
2017-12-25T12:39:43.027Z,101004.97
2017-12-25T12:42:11.330Z,101000.95
2017-12-25T12:44:40.003Z,100996.62
2017-12-25T12:47:11.703Z,100992.53
2017-12-25T12:49:40.509Z,100990.66
2017-12-25T12:52:09.806Z,100983.84
2017-12-25T12:54:37.989Z,100985.09
2017-12-25T12:57:06.973Z,100978.66
2017-12-25T12:59:37.900Z,100969.40
2017-12-25T13:02:08.550Z,100962.08
2017-12-25T13:04:38.870Z,100955.65
2017-12-25T13:07:09.834Z,100962.83
2017-12-25T13:09:40.988Z,100957.05
2017-12-25T13:12:10.809Z,100951.91
2017-12-25T13:14:39.184Z,100950.88
2017-12-25T13:17:08.558Z,100950.68
2017-12-25T13:19:36.231Z,100943.04
2017-12-25T13:22:04.806Z,100938.27
2017-12-25T13:24:32.418Z,100934.80
2017-12-25T13:27:01.748Z,100933.92
2017-12-25T13:29:30.522Z,100932.84
2017-12-25T13:31:58.174Z,100926.53
2017-12-25T13:34:28.659Z,100924.33
2017-12-25T13:36:58.047Z,100925.29
2017-12-25T13:39:26.516Z,100922.23
2017-12-25T13:41:58.496Z,100918.78
2017-12-25T13:44:28.463Z,100923.51
2017-12-25T13:46:58.131Z,100919.50
2017-12-25T13:49:29.334Z,100912.02
2017-12-25T13:51:58.436Z,100911.94
2017-12-25T13:54:30.449Z,100916.99
2017-12-25T13:57:01.393Z,100906.52
2017-12-25T13:59:30.531Z,100898.75
2017-12-25T14:02:00.118Z,100901.38
2017-12-25T14:04:27.900Z,100895.88
2017-12-25T14:06:58.409Z,100898.77
2017-12-25T14:09:26.413Z,100899.10
2017-12-25T14:11:55.370Z,100892.30
2017-12-25T14:14:24.102Z,100886.50
2017-12-25T14:16:52.982Z,100886.12
2017-12-25T14:19:23.591Z,100884.70
2017-12-25T14:21:52.733Z,100886.55
2017-12-25T14:24:21.757Z,100877.36
2017-12-25T14:26:52.380Z,100876.11
2017-12-25T14:29:20.051Z,100872.73
2017-12-25T14:31:47.689Z,100869.14
2017-12-25T14:34:16.023Z,100862.59
2017-12-25T14:36:46.454Z,100863.92
2017-12-25T14:39:15.070Z,100859.89
2017-12-25T14:41:45.742Z,100862.22
2017-12-25T14:44:13.354Z,100851.42
2017-12-25T14:46:43.819Z,100852.26
2017-12-25T14:49:13.734Z,100856.39
2017-12-25T14:51:42.166Z,100851.04
2017-12-25T14:54:09.815Z,100847.12
2017-12-25T14:56:38.165Z,100846.20
2017-12-25T14:59:08.865Z,100852.86
2017-12-25T15:01:38.744Z,100851.32
2017-12-25T15:04:09.442Z,100851.40
2017-12-25T15:06:37.098Z,100855.69
2017-12-25T15:09:05.048Z,100854.61
2017-12-25T15:11:34.012Z,100852.53
2017-12-25T15:14:03.587Z,100848.44
2017-12-25T15:16:32.409Z,100845.27
2017-12-25T15:19:00.076Z,100834.26
2017-12-25T15:21:30.152Z,100826.13
2017-12-25T15:23:58.484Z,100837.51
2017-12-25T15:26:28.465Z,100826.50
2017-12-25T15:28:56.120Z,100830.13
2017-12-25T15:31:25.110Z,100823.37
2017-12-25T15:33:55.705Z,100825.64
2017-12-25T15:36:26.206Z,100827.14
2017-12-25T15:38:56.149Z,100813.88
2017-12-25T15:41:29.270Z,100810.20
2017-12-25T15:43:58.282Z,100819.87
2017-12-25T15:46:28.578Z,100817.73
2017-12-25T15:48:58.584Z,100821.41
2017-12-25T15:51:26.193Z,100813.89
2017-12-25T15:56:29.087Z,100815.27
2017-12-25T15:58:57.230Z,100810.13
2017-12-25T16:01:28.683Z,100807.88
2017-12-25T16:03:56.286Z,100803.08
2017-12-25T16:06:27.614Z,100801.83
2017-12-25T16:09:00.452Z,100804.81
2017-12-25T16:11:28.781Z,100806.88
2017-12-25T16:13:56.898Z,100800.52
2017-12-25T16:16:27.101Z,100799.13
2017-12-25T16:18:54.678Z,100806.50
2017-12-25T16:21:24.604Z,100801.16
2017-12-25T16:23:53.055Z,100800.61
2017-12-25T16:26:22.401Z,100798.98
2017-12-25T16:28:51.930Z,100795.89
2017-12-25T16:31:21.253Z,100792.77
2017-12-25T16:33:54.036Z,100783.71
2017-12-25T16:36:22.791Z,100786.74
2017-12-25T16:38:52.245Z,100784.83
2017-12-25T16:41:22.110Z,100784.70
2017-12-25T16:43:53.926Z,100772.13
2017-12-25T16:46:23.718Z,100770.16
2017-12-25T16:48:53.989Z,100766.16
2017-12-25T16:51:24.790Z,100756.74
2017-12-25T16:53:54.882Z,100755.89
2017-12-25T16:56:25.234Z,100751.70
2017-12-25T16:58:57.291Z,100754.45
2017-12-25T17:01:29.671Z,100741.75
2017-12-25T17:03:58.436Z,100748.73
2017-12-25T17:06:27.237Z,100746.26
2017-12-25T17:08:57.818Z,100743.42
2017-12-25T17:11:26.846Z,100748.02
2017-12-25T17:13:59.063Z,100746.03
2017-12-25T17:16:28.293Z,100748.63
2017-12-25T17:18:58.603Z,100740.23
2017-12-25T17:21:28.010Z,100742.36
2017-12-25T17:23:55.624Z,100733.66
2017-12-25T17:26:25.698Z,100734.36
2017-12-25T17:28:57.916Z,100735.06
2017-12-25T17:31:26.187Z,100730.75
2017-12-25T17:33:55.080Z,100722.91
2017-12-25T17:36:25.351Z,100709.47
2017-12-25T17:38:55.940Z,100725.58
2017-12-25T17:41:27.294Z,100716.21
2017-12-25T17:43:58.001Z,100718.69
2017-12-25T17:46:26.433Z,100708.83
2017-12-25T17:48:55.494Z,100704.64
2017-12-25T17:51:24.603Z,100695.27
2017-12-25T17:53:55.862Z,100692.69
2017-12-25T17:56:25.726Z,100693.29
2017-12-25T17:58:54.077Z,100694.66
2017-12-25T18:01:23.717Z,100682.67
2017-12-25T18:03:51.963Z,100673.16
2017-12-25T18:06:20.430Z,100655.92
2017-12-25T18:08:48.770Z,100647.18
2017-12-25T18:11:17.458Z,100647.55
2017-12-25T18:13:48.210Z,100640.47
2017-12-25T18:16:17.511Z,100636.08
2017-12-25T18:18:47.878Z,100630.94
2017-12-25T18:21:20.252Z,100626.27
2017-12-25T18:23:54.954Z,100632.09
2017-12-25T18:26:26.267Z,100622.22
2017-12-25T18:28:59.411Z,100613.17
2017-12-25T18:31:29.515Z,100612.16
2017-12-25T18:34:04.994Z,100619.94
2017-12-25T18:36:33.544Z,100611.12
2017-12-25T18:39:02.520Z,100611.96
2017-12-25T18:41:30.100Z,100605.69
2017-12-25T18:43:58.124Z,100611.02
2017-12-25T18:46:28.095Z,100603.98
2017-12-25T18:48:57.423Z,100596.84
2017-12-25T18:51:26.112Z,100597.45
2017-12-25T18:53:55.595Z,100586.11
2017-12-25T18:56:26.475Z,100584.84
2017-12-25T18:58:55.647Z,100585.67
2017-12-25T19:01:26.524Z,100579.87
2017-12-25T19:03:54.821Z,100577.83
2017-12-25T19:06:23.394Z,100583.55
2017-12-25T19:08:52.673Z,100583.62
2017-12-25T19:11:22.508Z,100582.61
2017-12-25T19:13:51.247Z,100573.91
2017-12-25T19:16:20.537Z,100571.27
2017-12-25T19:18:48.140Z,100569.11
2017-12-25T19:21:17.222Z,100564.98
2017-12-25T19:23:46.566Z,100561.61
2017-12-25T19:26:16.598Z,100552.06
2017-12-25T19:28:45.838Z,100547.41
2017-12-25T19:31:14.138Z,100553.82
2017-12-25T19:33:43.406Z,100563.20
2017-12-25T19:36:12.218Z,100563.91
2017-12-25T19:38:42.075Z,100564.68
2017-12-25T19:41:10.127Z,100558.63
2017-12-25T19:43:38.550Z,100549.95
2017-12-25T19:46:09.782Z,100557.98
2017-12-25T19:51:12.511Z,100535.23
2017-12-25T19:53:42.147Z,100532.50
2017-12-25T19:56:10.451Z,100533.61
2017-12-25T19:58:40.812Z,100520.55
2017-12-25T20:01:10.548Z,100521.17
2017-12-25T20:03:38.175Z,100505.83
2017-12-25T20:06:07.666Z,100493.41
2017-12-25T20:08:37.632Z,100497.20
2017-12-25T20:11:05.666Z,100487.24
2017-12-25T20:13:34.387Z,100487.30
2017-12-25T20:16:04.046Z,100478.41
2017-12-25T20:18:32.918Z,100476.32
2017-12-25T20:21:03.102Z,100475.47
2017-12-25T20:23:31.974Z,100481.03
2017-12-25T20:26:00.552Z,100470.76
2017-12-25T20:28:31.791Z,100472.45
2017-12-25T20:31:02.322Z,100471.37
2017-12-25T20:33:31.304Z,100471.37
2017-12-25T20:35:59.016Z,100473.19
2017-12-25T20:38:27.670Z,100467.44
2017-12-25T20:40:55.987Z,100474.08
2017-12-25T20:43:26.100Z,100455.55
2017-12-25T20:45:55.077Z,100470.78
2017-12-25T20:48:24.427Z,100442.09
2017-12-25T20:50:52.032Z,100443.30
2017-12-25T20:53:22.913Z,100444.11
2017-12-25T20:55:50.900Z,100432.38
2017-12-25T20:58:19.646Z,100428.45
2017-12-25T21:00:49.128Z,100437.09
2017-12-25T21:03:17.827Z,100431.16
2017-12-25T21:05:45.379Z,100430.75
2017-12-25T21:08:14.694Z,100421.57
2017-12-25T21:10:45.258Z,100429.88
2017-12-25T21:13:13.746Z,100425.90
2017-12-25T21:15:42.829Z,100423.80
2017-12-25T21:18:11.694Z,100425.53
2017-12-25T21:20:40.474Z,100424.13
2017-12-25T21:23:12.694Z,100398.55
2017-12-25T21:25:41.163Z,100390.67
2017-12-25T21:28:11.266Z,100381.50
2017-12-25T21:30:39.798Z,100379.78
2017-12-25T21:33:07.438Z,100381.00
2017-12-25T21:35:35.675Z,100378.83
2017-12-25T21:38:04.015Z,100365.38
2017-12-25T21:40:32.278Z,100373.66
2017-12-25T21:43:05.156Z,100368.01
2017-12-25T21:45:35.774Z,100361.92
2017-12-25T21:48:06.692Z,100364.04
2017-12-25T21:50:36.007Z,100356.75
2017-12-25T21:53:07.772Z,100368.03
2017-12-25T21:55:35.521Z,100367.13
2017-12-25T21:58:04.335Z,100363.25
2017-12-25T22:00:32.801Z,100358.00
2017-12-25T22:03:01.915Z,100345.45
2017-12-25T22:05:32.902Z,100338.05
2017-12-25T22:08:02.635Z,100325.77
2017-12-25T22:10:32.563Z,100326.16
2017-12-25T22:13:00.178Z,100328.05
2017-12-25T22:15:28.960Z,100329.14
2017-12-25T22:17:57.298Z,100319.84
2017-12-25T22:20:25.282Z,100330.66
2017-12-25T22:22:52.975Z,100329.14
2017-12-25T22:25:21.560Z,100327.63
2017-12-25T22:27:52.690Z,100323.11
2017-12-25T22:30:20.976Z,100321.97
2017-12-25T22:32:51.082Z,100320.12
2017-12-25T22:35:20.391Z,100317.66
2017-12-25T22:37:48.727Z,100306.27
2017-12-25T22:40:18.122Z,100305.97
2017-12-25T22:42:48.787Z,100294.19
2017-12-25T22:45:19.968Z,100286.16
2017-12-25T22:47:48.253Z,100282.75
2017-12-25T22:50:16.616Z,100273.32
2017-12-25T22:52:47.819Z,100264.22
2017-12-25T22:55:16.783Z,100268.45
2017-12-25T22:57:45.221Z,100267.19
2017-12-25T23:00:17.157Z,100264.62
2017-12-25T23:02:47.602Z,100268.27
2017-12-25T23:05:15.252Z,100264.86
2017-12-25T23:07:45.689Z,100256.78
2017-12-25T23:10:13.282Z,100258.08
2017-12-25T23:12:42.134Z,100256.76
2017-12-25T23:15:15.652Z,100261.12
2017-12-25T23:17:43.373Z,100250.45
2017-12-25T23:20:10.967Z,100242.38
2017-12-25T23:22:38.613Z,100231.20
2017-12-25T23:25:08.198Z,100225.73
2017-12-25T23:27:38.194Z,100225.36
2017-12-25T23:30:07.488Z,100223.32
2017-12-25T23:32:37.204Z,100222.28
2017-12-25T23:35:06.969Z,100220.84
2017-12-25T23:37:36.875Z,100219.45
2017-12-25T23:40:07.005Z,100215.55
2017-12-25T23:42:37.747Z,100208.38
2017-12-25T23:45:09.286Z,100207.83
2017-12-25T23:47:39.038Z,100191.21
2017-12-25T23:50:10.112Z,100174.74
2017-12-25T23:52:38.258Z,100175.48
2017-12-25T23:55:07.635Z,100159.31
2017-12-25T23:57:36.904Z,100147.70
